Gemini Sun — D5FI6 — position and weather

sailwx.info

Track history (hours):
 
Tides and Currents Weather Stations Pressure Air Temp Water Temp Dewpoint Dewpoint Depression Visibility Wind Speed Wind Dir Waves Ship Positions

Gemini Sun

Last reported at 2017-Oct-20 11:59 UTC. Time now 2017-Oct-20 12:24 UTC.
Position N 45°37' E 013°47'.

Length 244 m; draft 14 m.

Type: Ship (hazmat cat B). MMSI: 636016275.

Date/timePositionNaut miles runAvg speedWind from/ knotsBaromVisibWave heightAir tempDewpointWater temp
2017-Oct-20 11:59N 45°37' E 013°47'0 0.0
2017-Oct-20 11:29N 45°37' E 013°47'0 0.0
2017-Oct-20 10:56N 45°37' E 013°47'0 0.4
2017-Oct-20 10:31N 45°37' E 013°46'1 2.6
2017-Oct-20 10:00N 45°37' E 013°45'2 3.6
2017-Oct-20 09:30N 45°37' E 013°42'0 0.8
2017-Oct-20 08:57N 45°38' E 013°42'0 0.0
2017-Oct-20 08:30N 45°38' E 013°42'0 0.1
2017-Oct-20 08:00N 45°38' E 013°42'0 0.0
2017-Oct-20 07:30N 45°38' E 013°42'0 0.1
2017-Oct-20 06:57N 45°38' E 013°42'0 0.1
2017-Oct-20 06:30N 45°38' E 013°42'1 1.9
2017-Oct-20 06:00N 45°38' E 013°41'3 5.7
2017-Oct-20 05:30N 45°37' E 013°37'5 9.3
2017-Oct-20 05:00N 45°34' E 013°31'5 9.9
2017-Oct-20 04:30N 45°32' E 013°25'510.8
2017-Oct-20 04:00N 45°29' E 013°18'510.8
2017-Oct-20 03:30N 45°25' E 013°13'611.3
2017-Oct-20 03:00N 45°20' E 013°13'611.4
2017-Oct-20 02:30N 45°14' E 013°14'511.0
2017-Oct-20 02:00N 45°08' E 013°14'3 6.6
2017-Oct-20 01:30N 45°05' E 013°15'4 8.5
2017-Oct-20 01:00N 45°02' E 013°18'5 9.6
2017-Oct-20 00:30N 44°57' E 013°22'611.0
2017-Oct-20 00:00N 44°53' E 013°26'611.5
2017-Oct-19 23:30N 44°48' E 013°30'611.5
2017-Oct-19 23:00N 44°43' E 013°35'611.4
2017-Oct-19 22:30N 44°38' E 013°39'611.5
2017-Oct-19 22:00N 44°34' E 013°44'611.5
2017-Oct-19 21:30N 44°29' E 013°48'611.8
2017-Oct-19 21:00N 44°24' E 013°52'611.9
2017-Oct-19 20:30N 44°19' E 013°57'612.0
2017-Oct-19 20:00N 44°14' E 014°01'612.0
2017-Oct-19 19:28N 44°08' E 014°06'612.0
2017-Oct-19 19:00N 44°04' E 014°11'612.1
2017-Oct-19 18:30N 43°59' E 014°15'612.3
2017-Oct-19 18:00N 43°53' E 014°20'612.5
2017-Oct-19 17:30N 43°48' E 014°24'18412.0
2017-Oct-19 02:07N 41°36' E 017°19'412.1
2017-Oct-19 01:48N 41°34' E 017°23'412.0
2017-Oct-19 01:27N 41°32' E 017°28'611.9
2017-Oct-19 00:58N 41°28' E 017°34'1312.0
2017-Oct-18 23:55N 41°21' E 017°48'1211.9
2017-Oct-18 22:54N 41°13' E 018°01'712.0
2017-Oct-18 22:18N 41°09' E 018°08'511.9
2017-Oct-18 21:54N 41°06' E 018°13'611.9
2017-Oct-18 21:25N 41°03' E 018°19'512.0
2017-Oct-18 20:58N 40°60' E 018°25'611.9
2017-Oct-18 20:30N 40°56' E 018°31'612.1
2017-Oct-18 20:00N 40°51' E 018°36'612.0
2017-Oct-18 19:28N 40°46' E 018°41'612.0
2017-Oct-18 19:00N 40°42' E 018°46'612.0
2017-Oct-18 18:30N 40°37' E 018°51'711.9
2017-Oct-18 17:56N 40°31' E 018°54'512.4
2017-Oct-18 17:30N 40°26' E 018°56'712.1
2017-Oct-18 16:58N 40°20' E 018°58'511.6
2017-Oct-18 16:30N 40°14' E 018°60'611.7
2017-Oct-18 16:00N 40°09' E 019°02'611.6
2017-Oct-18 15:30N 40°03' E 019°04'611.8
2017-Oct-18 15:00N 39°58' E 019°06'1212.1
2017-Oct-18 14:00N 39°46' E 019°10'712.4
2017-Oct-18 13:27N 39°39' E 019°12'812.2
2017-Oct-18 12:46N 39°31' E 019°14'412.3
2017-Oct-18 12:29N 39°28' E 019°15'612.1
2017-Oct-18 12:00N 39°22' E 019°17'612.1
2017-Oct-18 11:30N 39°16' E 019°19'612.0
2017-Oct-18 11:00N 39°10' E 019°22'612.0
2017-Oct-18 10:30N 39°05' E 019°24'612.2
2017-Oct-18 10:00N 38°59' E 019°26'612.3
2017-Oct-18 09:30N 38°53' E 019°28'612.3
2017-Oct-18 09:00N 38°47' E 019°31'612.4
2017-Oct-18 08:30N 38°41' E 019°33'1812.1
2017-Oct-18 07:00N 38°24' E 019°40'611.8
2017-Oct-18 06:30N 38°18' E 019°42'611.9
2017-Oct-18 06:00N 38°13' E 019°45'611.9
2017-Oct-18 05:30N 38°07' E 019°47'611.9
2017-Oct-18 05:00N 38°01' E 019°50'612.1
2017-Oct-18 04:30N 37°56' E 019°53'612.1
2017-Oct-18 04:00N 37°50' E 019°55'612.0
2017-Oct-18 03:29N 37°44' E 019°58'611.7
2017-Oct-18 03:00N 37°39' E 020°01'611.5
2017-Oct-18 02:30N 37°34' E 020°04'911.5
2017-Oct-18 01:46N 37°28' E 020°12'711.6
2017-Oct-18 01:10N 37°23' E 020°18'211.5
2017-Oct-18 01:00N 37°22' E 020°20'611.5
2017-Oct-18 00:30N 37°18' E 020°25'611.4
2017-Oct-18 00:00N 37°14' E 020°30'611.3
2017-Oct-17 23:29N 37°10' E 020°36'811.6
2017-Oct-17 22:49N 37°05' E 020°43'411.8
2017-Oct-17 22:30N 37°03' E 020°47'611.7
2017-Oct-17 22:00N 36°59' E 020°52'611.8
2017-Oct-17 21:29N 36°55' E 020°58'611.9
2017-Oct-17 21:00N 36°51' E 021°03'611.9
2017-Oct-17 20:29N 36°47' E 021°09'168 9.2
2017-Oct-17 02:18N 37°39' E 024°29'  
2017-Oct-14 09:42N 40°55' E 028°50'3 9.3
2017-Oct-14 09:24N 40°56' E 028°54'3 6.8
2017-Oct-14 09:00N 40°57' E 028°56'  
2017-Oct-12 01:57N 44°23' E 037°15'613.1
2017-Oct-12 01:30N 44°26' E 037°22'613.3
2017-Oct-12 01:00N 44°29' E 037°30'612.1
2017-Oct-12 00:30N 44°31' E 037°38'5 9.5
2017-Oct-12 00:00N 44°35' E 037°42'2 4.8
2017-Oct-11 23:31N 44°37' E 037°44'0 0.3
2017-Oct-11 23:01N 44°37' E 037°44'0 0.2
2017-Oct-11 22:30N 44°37' E 037°44'0 0.8
2017-Oct-11 22:01N 44°37' E 037°44'1 1.4
2017-Oct-11 21:30N 44°36' E 037°43'3 5.9
2017-Oct-11 21:01N 44°34' E 037°40'3 5.9
2017-Oct-11 20:30N 44°36' E 037°36'1 2.9
2017-Oct-11 20:00N 44°37' E 037°37'1 0.2
2017-Oct-11 17:33N 44°38' E 037°37'0 0.1
2017-Oct-11 17:30N 44°38' E 037°37'0 0.0
2017-Oct-10 19:21N 44°38' E 037°37'0 0.0
2017-Oct-10 18:15N 44°38' E 037°37'0 0.7
2017-Oct-10 18:00N 44°38' E 037°37'2 3.2
2017-Oct-10 17:30N 44°36' E 037°37'1 2.0
2017-Oct-10 17:00N 44°35' E 037°36'0 1.0
2017-Oct-10 16:30N 44°35' E 037°37'4 7.5
2017-Oct-10 16:00N 44°33' E 037°42'611.6
2017-Oct-10 15:30N 44°34' E 037°50'3 6.0
2017-Oct-10 14:59N 44°35' E 037°54'0 0.1
2017-Oct-10 13:59N 44°35' E 037°54'0 0.0
2017-Oct-10 13:30N 44°35' E 037°54'0 0.0
2017-Oct-10 12:59N 44°35' E 037°54'0 0.0
2017-Oct-10 12:29N 44°35' E 037°54'0 0.0
2017-Oct-10 11:59N 44°35' E 037°54'  
Track history (hours):
 
Tides and Currents Weather Stations Pressure Air Temp Water Temp Dewpoint Dewpoint Depression Visibility Wind Speed Wind Dir Waves Ship Positions

Gemini Sun

Last reported at 2017-Oct-20 11:59 UTC. Time now 2017-Oct-20 12:24 UTC.
Position N 45°37' E 013°47'.

Length 244 m; draft 14 m.

Type: Ship (hazmat cat B). MMSI: 636016275.

Date/timePositionNaut miles runAvg speedWind from/ knotsBaromVisibWave heightAir tempDewpointWater temp
2017-Oct-20 11:59N 45°37' E 013°47'0 0.0
2017-Oct-20 11:29N 45°37' E 013°47'0 0.0
2017-Oct-20 10:56N 45°37' E 013°47'0 0.4
2017-Oct-20 10:31N 45°37' E 013°46'1 2.6
2017-Oct-20 10:00N 45°37' E 013°45'2 3.6
2017-Oct-20 09:30N 45°37' E 013°42'0 0.8
2017-Oct-20 08:57N 45°38' E 013°42'0 0.0
2017-Oct-20 08:30N 45°38' E 013°42'0 0.1
2017-Oct-20 08:00N 45°38' E 013°42'0 0.0
2017-Oct-20 07:30N 45°38' E 013°42'0 0.1
2017-Oct-20 06:57N 45°38' E 013°42'0 0.1
2017-Oct-20 06:30N 45°38' E 013°42'1 1.9
2017-Oct-20 06:00N 45°38' E 013°41'3 5.7
2017-Oct-20 05:30N 45°37' E 013°37'5 9.3
2017-Oct-20 05:00N 45°34' E 013°31'5 9.9
2017-Oct-20 04:30N 45°32' E 013°25'510.8
2017-Oct-20 04:00N 45°29' E 013°18'510.8
2017-Oct-20 03:30N 45°25' E 013°13'611.3
2017-Oct-20 03:00N 45°20' E 013°13'611.4
2017-Oct-20 02:30N 45°14' E 013°14'511.0
2017-Oct-20 02:00N 45°08' E 013°14'3 6.6
2017-Oct-20 01:30N 45°05' E 013°15'4 8.5
2017-Oct-20 01:00N 45°02' E 013°18'5 9.6
2017-Oct-20 00:30N 44°57' E 013°22'611.0
2017-Oct-20 00:00N 44°53' E 013°26'611.5
2017-Oct-19 23:30N 44°48' E 013°30'611.5
2017-Oct-19 23:00N 44°43' E 013°35'611.4
2017-Oct-19 22:30N 44°38' E 013°39'611.5
2017-Oct-19 22:00N 44°34' E 013°44'611.5
2017-Oct-19 21:30N 44°29' E 013°48'611.8
2017-Oct-19 21:00N 44°24' E 013°52'611.9
2017-Oct-19 20:30N 44°19' E 013°57'612.0
2017-Oct-19 20:00N 44°14' E 014°01'612.0
2017-Oct-19 19:28N 44°08' E 014°06'612.0
2017-Oct-19 19:00N 44°04' E 014°11'612.1
2017-Oct-19 18:30N 43°59' E 014°15'612.3
2017-Oct-19 18:00N 43°53' E 014°20'612.5
2017-Oct-19 17:30N 43°48' E 014°24'18412.0
2017-Oct-19 02:07N 41°36' E 017°19'412.1
2017-Oct-19 01:48N 41°34' E 017°23'412.0
2017-Oct-19 01:27N 41°32' E 017°28'611.9
2017-Oct-19 00:58N 41°28' E 017°34'1312.0
2017-Oct-18 23:55N 41°21' E 017°48'1211.9
2017-Oct-18 22:54N 41°13' E 018°01'712.0
2017-Oct-18 22:18N 41°09' E 018°08'511.9
2017-Oct-18 21:54N 41°06' E 018°13'611.9
2017-Oct-18 21:25N 41°03' E 018°19'512.0
2017-Oct-18 20:58N 40°60' E 018°25'611.9
2017-Oct-18 20:30N 40°56' E 018°31'612.1
2017-Oct-18 20:00N 40°51' E 018°36'612.0
2017-Oct-18 19:28N 40°46' E 018°41'612.0
2017-Oct-18 19:00N 40°42' E 018°46'612.0
2017-Oct-18 18:30N 40°37' E 018°51'711.9
2017-Oct-18 17:56N 40°31' E 018°54'512.4
2017-Oct-18 17:30N 40°26' E 018°56'712.1
2017-Oct-18 16:58N 40°20' E 018°58'511.6
2017-Oct-18 16:30N 40°14' E 018°60'611.7
2017-Oct-18 16:00N 40°09' E 019°02'611.6
2017-Oct-18 15:30N 40°03' E 019°04'611.8
2017-Oct-18 15:00N 39°58' E 019°06'1212.1
2017-Oct-18 14:00N 39°46' E 019°10'712.4
2017-Oct-18 13:27N 39°39' E 019°12'812.2
2017-Oct-18 12:46N 39°31' E 019°14'412.3
2017-Oct-18 12:29N 39°28' E 019°15'612.1
2017-Oct-18 12:00N 39°22' E 019°17'612.1
2017-Oct-18 11:30N 39°16' E 019°19'612.0
2017-Oct-18 11:00N 39°10' E 019°22'612.0
2017-Oct-18 10:30N 39°05' E 019°24'612.2
2017-Oct-18 10:00N 38°59' E 019°26'612.3
2017-Oct-18 09:30N 38°53' E 019°28'612.3
2017-Oct-18 09:00N 38°47' E 019°31'612.4
2017-Oct-18 08:30N 38°41' E 019°33'1812.1
2017-Oct-18 07:00N 38°24' E 019°40'611.8
2017-Oct-18 06:30N 38°18' E 019°42'611.9
2017-Oct-18 06:00N 38°13' E 019°45'611.9
2017-Oct-18 05:30N 38°07' E 019°47'611.9
2017-Oct-18 05:00N 38°01' E 019°50'612.1
2017-Oct-18 04:30N 37°56' E 019°53'612.1
2017-Oct-18 04:00N 37°50' E 019°55'612.0
2017-Oct-18 03:29N 37°44' E 019°58'611.7
2017-Oct-18 03:00N 37°39' E 020°01'611.5
2017-Oct-18 02:30N 37°34' E 020°04'911.5
2017-Oct-18 01:46N 37°28' E 020°12'711.6
2017-Oct-18 01:10N 37°23' E 020°18'211.5
2017-Oct-18 01:00N 37°22' E 020°20'611.5
2017-Oct-18 00:30N 37°18' E 020°25'611.4
2017-Oct-18 00:00N 37°14' E 020°30'611.3
2017-Oct-17 23:29N 37°10' E 020°36'811.6
2017-Oct-17 22:49N 37°05' E 020°43'411.8
2017-Oct-17 22:30N 37°03' E 020°47'611.7
2017-Oct-17 22:00N 36°59' E 020°52'611.8
2017-Oct-17 21:29N 36°55' E 020°58'611.9
2017-Oct-17 21:00N 36°51' E 021°03'611.9
2017-Oct-17 20:29N 36°47' E 021°09'168 9.2
2017-Oct-17 02:18N 37°39' E 024°29'  
2017-Oct-14 09:42N 40°55' E 028°50'3 9.3
2017-Oct-14 09:24N 40°56' E 028°54'3 6.8
2017-Oct-14 09:00N 40°57' E 028°56'  
2017-Oct-12 01:57N 44°23' E 037°15'613.1
2017-Oct-12 01:30N 44°26' E 037°22'613.3
2017-Oct-12 01:00N 44°29' E 037°30'612.1
2017-Oct-12 00:30N 44°31' E 037°38'5 9.5
2017-Oct-12 00:00N 44°35' E 037°42'2 4.8
2017-Oct-11 23:31N 44°37' E 037°44'0 0.3
2017-Oct-11 23:01N 44°37' E 037°44'0 0.2
2017-Oct-11 22:30N 44°37' E 037°44'0 0.8
2017-Oct-11 22:01N 44°37' E 037°44'1 1.4
2017-Oct-11 21:30N 44°36' E 037°43'3 5.9
2017-Oct-11 21:01N 44°34' E 037°40'3 5.9
2017-Oct-11 20:30N 44°36' E 037°36'1 2.9
2017-Oct-11 20:00N 44°37' E 037°37'1 0.2
2017-Oct-11 17:33N 44°38' E 037°37'0 0.1
2017-Oct-11 17:30N 44°38' E 037°37'0 0.0
2017-Oct-10 19:21N 44°38' E 037°37'0 0.0
2017-Oct-10 18:15N 44°38' E 037°37'0 0.7
2017-Oct-10 18:00N 44°38' E 037°37'2 3.2
2017-Oct-10 17:30N 44°36' E 037°37'1 2.0
2017-Oct-10 17:00N 44°35' E 037°36'0 1.0
2017-Oct-10 16:30N 44°35' E 037°37'4 7.5
2017-Oct-10 16:00N 44°33' E 037°42'611.6
2017-Oct-10 15:30N 44°34' E 037°50'3 6.0
2017-Oct-10 14:59N 44°35' E 037°54'0 0.1
2017-Oct-10 13:59N 44°35' E 037°54'0 0.0
2017-Oct-10 13:30N 44°35' E 037°54'0 0.0
2017-Oct-10 12:59N 44°35' E 037°54'0 0.0
2017-Oct-10 12:29N 44°35' E 037°54'0 0.0
2017-Oct-10 11:59N 44°35' E 037°54'  

Dump ship's entire track history